Time;durP1;ratioP1;P1;durP2;ratioP2;P2;SDS_P1;SDS_P2;PMS_P1;PMS_P2;Temp;Humidity;BMP_temperature;BMP_pressure;BME280_temperature;BME280_humidity;BME280_pressure;Samples;Min_cycle;Max_cycle;Signal;HPM_P1;HPM_P2
2021/12/29 00:01:16;;;;;;;42.10;21.00;;;;;;;-3.15;71.39;97963.39;103006;1320;99210;-73
2021/12/29 00:03:46;;;;;;;42.30;20.80;;;;;;;-3.18;71.43;97963.66;103078;1317;96634;-73
2021/12/29 00:06:15;;;;;;;42.40;20.30;;;;;;;-3.15;71.31;97962.36;103041;1320;111780;-78
2021/12/29 00:08:43;;;;;;;39.60;19.90;;;;;;;-3.11;71.44;97961.36;103032;1317;99989;-74
2021/12/29 00:11:11;;;;;;;40.90;19.80;;;;;;;-3.12;71.28;97960.16;103053;1317;106182;-74
2021/12/29 00:13:39;;;;;;;37.70;19.50;;;;;;;-3.10;71.30;97953.34;103010;1319;97373;-77
2021/12/29 00:16:07;;;;;;;38.00;19.60;;;;;;;-3.11;71.03;97954.76;103067;1319;99252;-73
2021/12/29 00:18:35;;;;;;;38.60;18.90;;;;;;;-3.17;71.07;97954.44;103061;1320;111809;-74
2021/12/29 00:21:07;;;;;;;40.70;19.80;;;;;;;-3.27;71.23;97956.19;103019;1316;97960;-75
2021/12/29 00:23:35;;;;;;;42.10;19.90;;;;;;;-3.28;71.21;97956.55;103002;1321;107483;-75
2021/12/29 00:26:23;;;;;;;38.30;18.60;;;;;;;-3.24;71.32;97954.35;102947;1322;99417;-74
2021/12/29 00:28:51;;;;;;;41.20;20.10;;;;;;;-3.22;71.43;97955.99;103050;1317;97721;-75
2021/12/29 00:31:22;;;;;;;42.80;19.70;;;;;;;-3.19;71.33;97952.27;102910;1319;113950;-76
2021/12/29 00:33:52;;;;;;;39.90;18.90;;;;;;;-3.16;71.32;97948.86;103064;1317;99114;-74
2021/12/29 00:36:21;;;;;;;41.10;19.80;;;;;;;-3.14;71.47;97947.39;103064;1317;107616;-75
2021/12/29 00:38:52;;;;;;;41.30;20.60;;;;;;;-3.13;71.29;97945.83;102985;1317;99244;-75
2021/12/29 00:41:22;;;;;;;40.00;20.40;;;;;;;-3.08;71.44;97951.55;103056;1317;99255;-76
2021/12/29 00:43:50;;;;;;;40.10;18.30;;;;;;;-3.05;71.55;97945.52;103005;1322;111807;-76
2021/12/29 00:46:18;;;;;;;42.40;20.00;;;;;;;-3.02;71.38;97946.27;103060;1317;99936;-75
2021/12/29 00:48:48;;;;;;;40.90;19.70;;;;;;;-2.99;71.26;97945.83;103106;1322;108439;-76
2021/12/29 00:51:23;;;;;;;42.40;19.50;;;;;;;-2.95;71.64;97947.27;102981;1317;99285;-73
2021/12/29 00:53:50;;;;;;;44.10;22.10;;;;;;;-2.92;71.35;97950.10;103023;1322;99350;-73
2021/12/29 00:56:18;;;;;;;41.30;19.70;;;;;;;-2.88;71.26;97957.61;103008;1316;112751;-74
2021/12/29 00:58:46;;;;;;;41.80;18.70;;;;;;;-2.84;71.56;97956.41;102973;1316;99239;-73
2021/12/29 01:01:15;;;;;;;43.80;19.40;;;;;;;-2.80;71.58;97951.41;103014;1317;107621;-73
2021/12/29 01:03:46;;;;;;;45.50;20.90;;;;;;;-2.77;71.50;97958.75;103025;1319;99621;-74
2021/12/29 01:06:14;;;;;;;46.40;21.70;;;;;;;-2.73;71.72;97956.01;103065;1318;100084;-74
2021/12/29 01:08:42;;;;;;;37.20;18.60;;;;;;;-2.69;71.74;97945.96;102921;1324;112912;-74
2021/12/29 01:11:14;;;;;;;43.10;19.90;;;;;;;-2.66;71.45;97946.23;103019;1316;99336;-74
2021/12/29 01:13:48;;;;;;;104.50;49.90;;;;;;;-2.64;71.57;97943.52;103616;1319;107875;-74
2021/12/29 01:16:36;;;;;;;51.10;24.70;;;;;;;-2.61;71.80;97945.69;102981;1317;98579;-73
2021/12/29 01:19:12;;;;;;;44.80;20.10;;;;;;;-2.59;71.59;97947.16;102979;1319;99283;-73
2021/12/29 01:21:43;;;;;;;42.20;22.50;;;;;;;-2.57;71.61;97941.17;102993;1320;111898;-75
2021/12/29 01:24:15;;;;;;;41.40;19.70;;;;;;;-2.55;71.66;97939.03;102998;1316;99267;-74
2021/12/29 01:26:44;;;;;;;37.10;18.20;;;;;;;-2.56;71.88;97941.32;103041;1319;108344;-72
2021/12/29 01:29:15;;;;;;;39.10;19.40;;;;;;;-2.57;71.61;97944.30;103004;1320;97222;-73
2021/12/29 01:31:46;;;;;;;41.10;20.30;;;;;;;-2.55;71.64;97945.98;103007;1320;99252;-74
2021/12/29 01:34:18;;;;;;;41.00;20.80;;;;;;;-2.53;71.70;97943.14;102976;1325;112096;-73
2021/12/29 01:36:46;;;;;;;36.90;18.00;;;;;;;-2.50;71.49;97937.48;102992;1317;97341;-74
2021/12/29 01:39:18;;;;;;;39.20;19.70;;;;;;;-2.50;71.35;97944.07;103045;1322;107889;-73
2021/12/29 01:41:51;;;;;;;41.80;21.80;;;;;;;-2.49;71.65;97943.02;103047;1317;99272;-76
2021/12/29 01:44:24;;;;;;;43.50;20.00;;;;;;;-2.47;72.00;97942.21;103017;1320;99297;-75
2021/12/29 01:46:57;;;;;;;49.40;23.20;;;;;;;-2.43;71.79;97944.84;102993;1316;112338;-74
2021/12/29 01:49:25;;;;;;;35.20;17.60;;;;;;;-2.42;71.93;97943.75;103001;1321;99253;-74
2021/12/29 01:52:03;;;;;;;51.10;24.00;;;;;;;-2.42;71.53;97945.30;103014;1318;107861;-74
2021/12/29 01:54:34;;;;;;;46.50;22.40;;;;;;;-2.42;71.62;97947.41;102982;1317;99358;-77
2021/12/29 01:57:06;;;;;;;;;;;;;;;-2.41;71.82;97949.95;103029;1316;98401;-75
2021/12/29 01:59:36;;;;;;;43.30;20.60;;;;;;;-2.41;71.88;97946.82;102966;1317;112864;-76
2021/12/29 02:02:06;;;;;;;46.90;22.90;;;;;;;-2.37;71.79;97941.48;103022;1317;99343;-74
2021/12/29 02:04:35;;;;;;;49.40;23.20;;;;;;;-2.35;71.95;97939.52;102999;1316;107837;-75
2021/12/29 02:07:05;;;;;;;45.70;21.20;;;;;;;-2.34;71.60;97937.54;103391;1316;99249;-76
2021/12/29 02:09:35;;;;;;;39.20;19.60;;;;;;;-2.36;71.64;97934.16;102946;1319;99168;-75
2021/12/29 02:12:05;;;;;;;42.90;21.40;;;;;;;-2.37;71.75;97935.23;103093;1316;112921;-75
2021/12/29 02:14:35;;;;;;;42.70;22.40;;;;;;;-2.36;71.82;97930.49;102988;1320;97320;-75
2021/12/29 02:17:03;;;;;;;45.70;21.50;;;;;;;-2.35;71.68;97930.48;102979;1317;107648;-75
2021/12/29 02:19:42;;;;;;;43.10;20.30;;;;;;;-2.36;71.97;97932.57;103025;1313;99142;-75
2021/12/29 02:22:27;;;;;;;43.20;21.50;;;;;;;-2.37;71.76;97932.48;103006;1319;99372;-75
2021/12/29 02:25:20;;;;;;;41.20;20.90;;;;;;;-2.37;71.54;97932.47;103054;1317;112776;-75
2021/12/29 02:27:53;;;;;;;45.40;22.70;;;;;;;-2.38;71.85;97934.59;102991;1319;99257;-75
2021/12/29 02:30:26;;;;;;;47.60;23.80;;;;;;;-2.38;71.72;97934.77;102998;1317;107682;-74
2021/12/29 02:33:00;;;;;;;42.20;20.00;;;;;;;-2.37;71.80;97933.15;102845;1319;99142;-74
2021/12/29 02:35:35;;;;;;;38.30;19.30;;;;;;;-2.38;71.94;97929.35;102944;1317;97850;-75
2021/12/29 02:38:08;;;;;;;43.70;21.20;;;;;;;-2.38;71.68;97927.13;103055;1319;112596;-74
2021/12/29 02:40:39;;;;;;;41.00;20.20;;;;;;;-2.38;71.61;97927.98;103053;1317;96545;-75
2021/12/29 02:43:07;;;;;;;42.70;20.80;;;;;;;-2.37;71.86;97930.22;102982;1319;108364;-74
2021/12/29 02:45:35;;;;;;;46.50;22.70;;;;;;;-2.37;71.86;97927.80;103040;1317;98172;-73
2021/12/29 02:48:05;;;;;;;43.90;20.60;;;;;;;-2.38;71.76;97925.37;103015;1317;99257;-73
2021/12/29 02:50:34;;;;;;;43.20;21.40;;;;;;;-2.37;71.84;97924.63;102857;1319;112807;-72
2021/12/29 02:53:03;;;;;;;41.70;20.90;;;;;;;-2.38;71.84;97924.16;103009;1316;99644;-72
2021/12/29 02:55:31;;;;;;;41.80;20.70;;;;;;;-2.40;71.65;97925.80;102963;1318;107826;-74
2021/12/29 02:57:59;;;;;;;42.90;21.50;;;;;;;-2.42;71.64;97920.84;103045;1316;99279;-74
2021/12/29 03:00:27;;;;;;;43.70;21.70;;;;;;;-2.44;72.00;97918.33;103029;1319;99282;-75
2021/12/29 03:02:54;;;;;;;40.50;20.40;;;;;;;-2.45;71.66;97918.88;102963;1320;112852;-74
2021/12/29 03:05:25;;;;;;;41.80;21.40;;;;;;;-2.44;71.90;97921.96;102993;1320;99239;-74
2021/12/29 03:07:55;;;;;;;41.60;21.10;;;;;;;-2.46;71.81;97918.73;102997;1316;107420;-75
2021/12/29 03:10:26;;;;;;;41.70;20.60;;;;;;;-2.45;71.74;97918.02;103002;1319;97339;-74
2021/12/29 03:12:54;;;;;;;44.40;22.20;;;;;;;-2.43;71.81;97910.63;103037;1316;99237;-75
2021/12/29 03:15:24;;;;;;;44.20;20.80;;;;;;;-2.43;71.71;97907.16;102869;1324;112821;-75
2021/12/29 03:17:52;;;;;;;46.60;21.50;;;;;;;-2.43;72.05;97906.45;103041;1316;99345;-75
2021/12/29 03:20:19;;;;;;;41.70;20.10;;;;;;;-2.42;71.92;97910.95;103037;1317;107790;-77
2021/12/29 03:22:47;;;;;;;47.50;23.30;;;;;;;-2.41;71.92;97910.89;102887;1317;99238;-74
2021/12/29 03:25:15;;;;;;;42.40;21.10;;;;;;;-2.41;71.62;97904.29;103004;1322;99307;-76
2021/12/29 03:27:43;;;;;;;40.50;19.30;;;;;;;-2.38;71.87;97902.29;103066;1319;113589;-74
2021/12/29 03:30:11;;;;;;;43.30;20.90;;;;;;;-2.36;71.71;97899.60;103076;1316;99237;-75
2021/12/29 03:32:43;;;;;;;38.80;18.30;;;;;;;-2.38;71.76;97897.58;103022;1317;107898;-75
2021/12/29 03:35:13;;;;;;;44.50;21.50;;;;;;;-2.50;71.60;97893.88;102988;1325;99332;-77
2021/12/29 03:37:43;;;;;;;44.00;22.40;;;;;;;-2.52;71.62;97893.64;103080;1319;98017;-75
2021/12/29 03:40:13;;;;;;;44.40;21.70;;;;;;;-2.48;71.89;97895.03;103043;1319;111995;-75
2021/12/29 03:42:41;;;;;;;41.90;21.20;;;;;;;-2.45;71.85;97891.11;103039;1320;97412;-75
2021/12/29 03:45:09;;;;;;;44.10;22.00;;;;;;;-2.42;71.62;97889.94;103097;1315;108632;-74
2021/12/29 03:47:37;;;;;;;42.10;20.90;;;;;;;-2.39;72.01;97891.38;103108;1319;99413;-75
2021/12/29 03:50:08;;;;;;;39.80;19.60;;;;;;;-2.36;71.87;97892.15;103070;1318;96555;-74
2021/12/29 03:52:36;;;;;;;45.60;22.20;;;;;;;-2.34;72.19;97891.88;103079;1321;112786;-75
2021/12/29 03:55:06;;;;;;;45.40;21.60;;;;;;;-2.30;72.20;97897.13;103086;1320;99264;-74
2021/12/29 03:57:37;;;;;;;43.00;21.50;;;;;;;-2.28;71.88;97899.45;103054;1317;107879;-74
2021/12/29 04:00:10;;;;;;;46.20;23.00;;;;;;;-2.25;72.19;97901.79;102969;1317;99837;-74
2021/12/29 04:02:39;;;;;;;44.70;21.90;;;;;;;-2.22;72.02;97903.42;103038;1318;99383;-75
2021/12/29 04:05:11;;;;;;;41.80;20.60;;;;;;;-2.21;72.19;97902.86;103063;1317;113798;-76
2021/12/29 04:07:41;;;;;;;41.10;19.80;;;;;;;-2.20;71.83;97907.30;103079;1318;96653;-75
2021/12/29 04:10:10;;;;;;;41.00;20.10;;;;;;;-2.19;71.91;97906.59;103058;1316;107838;-72
2021/12/29 04:12:43;;;;;;;40.50;20.50;;;;;;;-2.17;72.11;97901.48;103059;1320;99485;-73
2021/12/29 04:15:14;;;;;;;40.20;19.50;;;;;;;-2.17;71.65;97897.99;103066;1316;99290;-73
2021/12/29 04:17:49;;;;;;;41.30;20.60;;;;;;;-2.19;71.61;97892.70;103073;1317;112729;-74
2021/12/29 04:23:12;;;;;;;41.40;20.30;;;;;;;-2.18;71.95;97896.83;103076;1317;108011;-73
2021/12/29 04:25:48;;;;;;;42.70;20.90;;;;;;;-2.17;71.88;97898.52;103081;1317;98051;-74
2021/12/29 04:28:25;;;;;;;43.20;21.00;;;;;;;-2.15;72.01;97902.44;103084;1317;99183;-72
2021/12/29 04:31:05;;;;;;;44.20;21.50;;;;;;;-2.13;71.94;97899.73;103097;1319;112855;-74
2021/12/29 04:33:38;;;;;;;44.40;21.60;;;;;;;-2.09;71.94;97896.81;103054;1320;99240;-73
2021/12/29 04:36:08;;;;;;;44.90;21.40;;;;;;;-2.07;71.85;97896.55;103034;1318;107746;-73
2021/12/29 04:38:37;;;;;;;41.30;21.60;;;;;;;-2.04;71.89;97900.11;103066;1319;97812;-73
2021/12/29 04:41:04;;;;;;;43.70;22.00;;;;;;;-2.04;71.91;97898.85;103092;1316;99348;-73
2021/12/29 04:43:33;;;;;;;42.10;20.80;;;;;;;-2.01;72.18;97897.69;102872;1319;112969;-75
2021/12/29 04:46:00;;;;;;;38.00;18.40;;;;;;;-1.99;72.10;97898.48;103043;1318;99275;-72
2021/12/29 04:48:37;;;;;;;37.60;18.10;;;;;;;-1.97;71.93;97903.61;103093;1312;107871;-72
2021/12/29 04:51:15;;;;;;;37.00;18.60;;;;;;;-1.97;71.96;97903.27;103084;1317;99226;-72
2021/12/29 04:53:45;;;;;;;38.10;19.40;;;;;;;-1.98;71.90;97904.87;103079;1318;99156;-72
2021/12/29 04:56:15;;;;;;;38.90;19.60;;;;;;;-1.94;72.02;97907.48;103076;1319;112970;-72
2021/12/29 04:58:44;;;;;;;37.30;17.90;;;;;;;-1.96;71.63;97910.36;103110;1319;99275;-73
2021/12/29 05:01:12;;;;;;;43.10;19.90;;;;;;;-1.98;71.74;97910.45;103114;1317;107871;-72
2021/12/29 05:03:44;;;;;;;49.20;21.70;;;;;;;-2.00;72.07;97912.44;103082;1317;99326;-74
2021/12/29 05:08:43;;;;;;;45.00;19.90;;;;;;;-1.99;71.92;97916.71;103118;1319;112839;-74
2021/12/29 05:11:16;;;;;;;43.50;20.50;;;;;;;-1.97;71.82;97919.10;103048;1317;96570;-73
2021/12/29 05:13:48;;;;;;;40.20;19.40;;;;;;;-1.93;71.92;97921.52;103048;1316;107872;-76
2021/12/29 05:16:16;;;;;;;41.70;19.90;;;;;;;-1.91;71.87;97927.02;103061;1317;97995;-74
2021/12/29 05:18:45;;;;;;;40.70;23.20;;;;;;;-1.95;71.85;97929.60;103127;1319;99493;-74
2021/12/29 05:21:14;;;;;;;40.80;21.10;;;;;;;-1.94;72.00;97934.77;102909;1318;112914;-73
2021/12/29 05:23:41;;;;;;;40.80;21.30;;;;;;;-1.89;72.04;97936.14;103117;1317;99332;-73
2021/12/29 05:26:09;;;;;;;44.20;20.70;;;;;;;-1.85;71.94;97934.63;103006;1319;106728;-74
2021/12/29 05:28:37;;;;;;;41.90;20.90;;;;;;;-1.81;72.08;97936.01;102998;1322;99237;-74
2021/12/29 05:31:06;;;;;;;44.30;21.20;;;;;;;-1.80;72.07;97934.20;103032;1319;99246;-76
2021/12/29 05:33:34;;;;;;;42.60;21.10;;;;;;;-1.76;72.08;97938.08;103037;1318;111077;-77
2021/12/29 05:36:05;;;;;;;42.60;21.20;;;;;;;-1.72;72.36;97943.31;103021;1319;99323;-78
2021/12/29 05:38:32;;;;;;;40.80;20.30;;;;;;;-1.70;72.01;97946.68;103063;1319;107911;-77
2021/12/29 05:41:00;;;;;;;45.60;21.10;;;;;;;-1.69;72.33;97949.77;103073;1316;97074;-77
2021/12/29 05:43:28;;;;;;;43.30;20.20;;;;;;;-1.65;72.14;97953.77;103076;1322;100111;-74
2021/12/29 05:45:56;;;;;;;42.40;20.50;;;;;;;-1.62;72.30;97953.48;103020;1320;112269;-73
2021/12/29 05:48:24;;;;;;;42.60;21.30;;;;;;;-1.58;72.24;97954.21;103119;1316;99346;-75
2021/12/29 05:50:54;;;;;;;39.50;20.20;;;;;;;-1.55;72.33;97953.73;103039;1318;107857;-74
2021/12/29 05:53:21;;;;;;;40.20;20.00;;;;;;;-1.54;72.34;97955.09;103075;1319;99253;-73
2021/12/29 05:55:49;;;;;;;37.50;19.40;;;;;;;-1.60;72.05;97953.95;103120;1317;96718;-72
2021/12/29 05:58:17;;;;;;;38.30;19.50;;;;;;;-1.68;71.86;97955.45;103054;1319;111196;-72
2021/12/29 06:00:45;;;;;;;38.20;18.80;;;;;;;-1.77;71.77;97954.25;103005;1322;99355;-73
2021/12/29 06:03:20;;;;;;;43.70;20.70;;;;;;;-1.89;71.56;97952.83;103084;1316;107828;-75
2021/12/29 06:05:54;;;;;;;40.90;20.90;;;;;;;-2.00;71.81;97954.11;103085;1316;99262;-74
2021/12/29 06:08:22;;;;;;;45.00;21.50;;;;;;;-2.00;71.94;97959.17;103059;1319;99608;-75
2021/12/29 06:10:50;;;;;;;44.00;20.80;;;;;;;-2.01;71.78;97959.04;103062;1319;112752;-73
2021/12/29 06:13:18;;;;;;;45.80;20.90;;;;;;;-2.02;71.84;97961.86;103025;1319;98058;-75
2021/12/29 06:15:46;;;;;;;45.90;22.60;;;;;;;-2.00;72.05;97964.04;103044;1317;107715;-74
2021/12/29 06:18:18;;;;;;;46.00;22.10;;;;;;;-1.94;72.00;97961.20;103049;1319;99321;-73
2021/12/29 06:20:46;;;;;;;44.60;21.80;;;;;;;-1.87;72.06;97961.42;102976;1319;99346;-76
2021/12/29 06:23:16;;;;;;;47.50;23.60;;;;;;;-1.80;72.32;97961.52;103011;1317;112797;-75
2021/12/29 06:25:45;;;;;;;44.80;22.50;;;;;;;-1.74;72.16;97962.66;103019;1317;99122;-74
2021/12/29 06:28:12;;;;;;;45.50;23.20;;;;;;;-1.70;72.30;97962.84;102939;1318;107811;-74
2021/12/29 06:30:45;;;;;;;43.70;22.00;;;;;;;-1.67;72.19;97967.59;103090;1319;99374;-75
2021/12/29 06:33:16;;;;;;;43.10;21.50;;;;;;;-1.69;71.78;97970.81;102983;1323;99441;-74
2021/12/29 06:35:48;;;;;;;43.60;23.10;;;;;;;-1.78;72.00;97974.31;102975;1319;113429;-73
2021/12/29 06:38:23;;;;;;;45.80;23.50;;;;;;;-1.81;72.24;97984.46;103002;1319;99856;-74
2021/12/29 06:40:51;;;;;;;46.70;23.70;;;;;;;-1.78;72.32;97993.56;103044;1316;106403;-75
2021/12/29 06:43:19;;;;;;;49.60;25.60;;;;;;;-1.71;72.18;97999.55;103071;1319;99388;-74
2021/12/29 06:45:46;;;;;;;47.00;26.40;;;;;;;-1.64;72.27;98002.41;102944;1323;99272;-77
2021/12/29 06:48:19;;;;;;;49.80;25.80;;;;;;;-1.59;72.22;97999.77;103081;1319;112885;-75
2021/12/29 06:50:47;;;;;;;49.10;25.90;;;;;;;-1.53;72.53;98000.43;103056;1317;99349;-73
2021/12/29 06:53:15;;;;;;;51.20;26.30;;;;;;;-1.48;72.38;98000.92;103098;1319;107863;-74
2021/12/29 06:55:45;;;;;;;46.80;25.10;;;;;;;-1.44;72.46;98004.42;103176;1320;99364;-73
2021/12/29 06:58:13;;;;;;;61.60;29.80;;;;;;;-1.41;72.44;98006.88;102980;1319;99246;-72
2021/12/29 07:00:41;;;;;;;71.90;37.30;;;;;;;-1.38;72.41;98008.31;103081;1319;112206;-73
2021/12/29 07:03:09;;;;;;;69.40;35.40;;;;;;;-1.35;72.27;98013.59;103029;1318;99436;-74
2021/12/29 07:05:41;;;;;;;70.80;36.60;;;;;;;-1.33;72.58;98012.30;102898;1319;105844;-72
2021/12/29 07:08:09;;;;;;;61.10;31.80;;;;;;;-1.30;72.46;98006.80;102939;1319;99272;-71
2021/12/29 07:10:42;;;;;;;57.50;29.40;;;;;;;-1.28;72.26;98004.25;102928;1319;99249;-76
2021/12/29 07:13:11;;;;;;;55.30;27.10;;;;;;;-1.24;72.58;98012.48;103008;1319;112928;-71
2021/12/29 07:15:39;;;;;;;51.50;27.70;;;;;;;-1.22;72.28;98012.71;103128;1317;99384;-71
2021/12/29 07:18:07;;;;;;;53.60;28.00;;;;;;;-1.21;72.51;98020.30;102981;1319;107818;-72
2021/12/29 07:20:35;;;;;;;58.40;29.00;;;;;;;-1.21;72.66;98025.70;103018;1316;96641;-74
2021/12/29 07:23:07;;;;;;;61.20;31.10;;;;;;;-1.18;72.52;98025.09;103033;1319;99480;-70
2021/12/29 07:25:34;;;;;;;59.80;30.00;;;;;;;-1.16;72.59;98029.16;103069;1316;112744;-71
2021/12/29 07:28:06;;;;;;;61.40;31.00;;;;;;;-1.15;72.14;98024.98;102984;1318;99284;-71
2021/12/29 07:30:35;;;;;;;61.10;31.10;;;;;;;-1.20;72.31;98024.98;102977;1322;107792;-73
2021/12/29 07:33:03;;;;;;;57.50;29.70;;;;;;;-1.20;72.31;98024.46;102940;1325;99372;-72
2021/12/29 07:35:31;;;;;;;59.60;31.20;;;;;;;-1.18;72.36;98024.20;103054;1317;97737;-73
2021/12/29 07:37:59;;;;;;;56.80;29.10;;;;;;;-1.17;72.29;98025.05;103092;1319;112868;-73
2021/12/29 07:40:27;;;;;;;54.80;28.50;;;;;;;-1.17;72.27;98030.76;103089;1317;99124;-75
2021/12/29 07:42:59;;;;;;;58.70;29.80;;;;;;;-1.15;72.18;98033.84;103084;1316;108736;-75
2021/12/29 07:45:27;;;;;;;56.50;27.90;;;;;;;-1.14;72.40;98039.20;102934;1319;99306;-76
2021/12/29 07:48:04;;;;;;;54.70;27.20;;;;;;;-1.12;72.45;98043.09;103039;1319;99253;-74
2021/12/29 07:50:31;;;;;;;58.00;28.10;;;;;;;-1.11;72.30;98041.47;103067;1322;112953;-75
2021/12/29 07:52:59;;;;;;;56.80;28.80;;;;;;;-1.10;72.27;98045.81;103056;1318;99258;-75
2021/12/29 07:55:27;;;;;;;59.60;28.70;;;;;;;-1.10;72.33;98042.33;103033;1319;107844;-72
2021/12/29 07:57:58;;;;;;;55.00;28.30;;;;;;;-1.11;72.35;98045.80;103091;1317;99231;-74
2021/12/29 08:00:29;;;;;;;61.00;31.60;;;;;;;-1.13;72.39;98046.27;103101;1319;99217;-78
2021/12/29 08:02:57;;;;;;;57.80;30.10;;;;;;;-1.15;72.02;98045.30;103081;1317;112843;-71
2021/12/29 08:05:26;;;;;;;65.50;32.50;;;;;;;-1.20;71.89;98044.98;103089;1317;99355;-73
2021/12/29 08:07:54;;;;;;;68.30;34.80;;;;;;;-1.20;72.34;98043.06;103065;1319;107832;-72
2021/12/29 08:10:22;;;;;;;63.80;34.90;;;;;;;-1.17;72.30;98045.03;103069;1317;97206;-72
2021/12/29 08:12:49;;;;;;;65.90;33.50;;;;;;;-1.13;72.22;98041.75;103111;1319;99435;-75
2021/12/29 08:15:17;;;;;;;65.40;34.40;;;;;;;-1.10;72.28;98043.38;103066;1318;111019;-73
2021/12/29 08:17:51;;;;;;;69.10;33.70;;;;;;;-1.09;72.22;98045.04;103083;1316;99107;-72
2021/12/29 08:20:18;;;;;;;60.50;32.00;;;;;;;-1.08;72.19;98042.56;103072;1317;107813;-72
2021/12/29 08:22:47;;;;;;;63.60;32.20;;;;;;;-1.06;72.19;98038.85;103094;1319;99255;-75
2021/12/29 08:25:15;;;;;;;73.30;33.70;;;;;;;-1.04;72.26;98033.71;103076;1322;99253;-72
2021/12/29 08:27:43;;;;;;;68.10;33.20;;;;;;;-1.00;72.47;98033.89;102996;1319;112871;-76
2021/12/29 08:30:14;;;;;;;68.80;35.60;;;;;;;-0.96;72.35;98034.61;103040;1319;99347;-73
2021/12/29 08:32:43;;;;;;;66.00;34.00;;;;;;;-0.95;72.18;98028.81;103027;1318;109000;-74
2021/12/29 08:35:15;;;;;;;63.00;33.00;;;;;;;-0.93;72.23;98032.94;102902;1319;99091;-76
2021/12/29 08:37:44;;;;;;;59.90;31.40;;;;;;;-0.91;72.20;98032.44;102978;1319;99420;-76
2021/12/29 08:40:14;;;;;;;62.10;32.50;;;;;;;-0.86;72.38;98035.23;103052;1319;114116;-76
2021/12/29 08:42:49;;;;;;;62.30;31.60;;;;;;;-0.82;72.31;98035.04;102988;1314;99217;-79
2021/12/29 08:45:23;;;;;;;60.60;33.70;;;;;;;-0.77;72.28;98035.50;103006;1320;107821;-77
2021/12/29 08:47:55;;;;;;;58.50;31.70;;;;;;;-0.73;72.26;98037.98;103028;1320;99335;-74
2021/12/29 08:50:29;;;;;;;58.50;32.50;;;;;;;-0.69;72.54;98040.61;102912;1315;98438;-76
2021/12/29 08:53:04;;;;;;;61.90;32.00;;;;;;;-0.63;72.38;98041.70;102958;1318;113724;-81
2021/12/29 08:55:34;;;;;;;68.50;35.70;;;;;;;-0.55;72.45;98042.42;103035;1317;98025;-83
2021/12/29 08:58:06;;;;;;;67.90;35.00;;;;;;;-0.50;72.35;98040.65;103057;1316;107970;-76
2021/12/29 09:00:35;;;;;;;64.40;34.50;;;;;;;-0.49;72.42;98040.60;102876;1319;99317;-75
2021/12/29 09:03:06;;;;;;;63.80;33.70;;;;;;;-0.48;72.46;98042.81;103015;1324;99305;-76
2021/12/29 09:05:37;;;;;;;69.80;35.90;;;;;;;-0.44;72.38;98040.39;102916;1319;112903;-77
2021/12/29 09:08:07;;;;;;;66.80;35.30;;;;;;;-0.40;72.54;98035.85;102980;1319;98436;-78
2021/12/29 09:10:36;;;;;;;68.40;35.50;;;;;;;-0.36;72.53;98035.85;103020;1321;106746;-73
2021/12/29 09:13:06;;;;;;;70.70;39.10;;;;;;;-0.32;72.41;98040.55;103007;1318;100361;-83
2021/12/29 09:15:34;;;;;;;69.20;35.60;;;;;;;-0.28;72.52;98044.40;103244;1319;98406;-77
2021/12/29 09:18:02;;;;;;;67.80;37.90;;;;;;;-0.24;72.55;98040.89;102892;1315;112353;-75
2021/12/29 09:20:32;;;;;;;68.20;38.00;;;;;;;-0.19;72.57;98040.32;102936;1319;99805;-75
2021/12/29 09:23:09;;;;;;;71.80;40.30;;;;;;;-0.15;72.53;98037.34;102818;1318;107975;-75
2021/12/29 09:25:41;;;;;;;73.10;38.70;;;;;;;-0.10;72.42;98036.46;103242;1319;99242;-75
2021/12/29 09:28:12;;;;;;;67.70;37.50;;;;;;;-0.03;72.53;98035.77;103020;1319;97937;-75
2021/12/29 09:30:45;;;;;;;70.50;38.50;;;;;;;0.06;72.60;98036.39;103030;1319;112913;-76
2021/12/29 09:33:19;;;;;;;69.00;37.20;;;;;;;0.13;72.52;98038.14;103094;1319;99788;-75
2021/12/29 09:36:01;;;;;;;70.50;37.60;;;;;;;0.22;72.59;98035.82;102868;1319;107753;-75
2021/12/29 09:38:40;;;;;;;74.90;40.20;;;;;;;0.29;72.35;98034.64;103008;1316;99223;-75
2021/12/29 09:41:12;;;;;;;74.20;38.50;;;;;;;0.36;72.59;98038.16;103090;1316;99221;-77
2021/12/29 09:43:42;;;;;;;78.30;41.90;;;;;;;0.36;72.45;98037.44;102974;1318;112848;-76
2021/12/29 09:46:11;;;;;;;70.80;39.40;;;;;;;0.37;72.40;98039.15;102964;1319;99325;-75
2021/12/29 09:48:40;;;;;;;74.60;39.00;;;;;;;0.38;72.37;98042.05;103018;1319;108363;-75
2021/12/29 09:51:15;;;;;;;74.10;41.20;;;;;;;0.37;72.24;98042.80;103489;1317;99329;-74
2021/12/29 09:53:46;;;;;;;81.80;42.40;;;;;;;0.39;72.36;98041.64;102928;1318;99315;-75
2021/12/29 09:56:14;;;;;;;87.80;46.80;;;;;;;0.35;72.22;98043.23;103035;1318;112946;-75
2021/12/29 09:58:43;;;;;;;84.70;44.20;;;;;;;0.37;72.26;98047.71;103016;1318;97932;-75
2021/12/29 10:01:11;;;;;;;89.30;44.90;;;;;;;0.40;72.36;98053.63;104543;1318;107848;-74
2021/12/29 10:03:42;;;;;;;87.40;46.10;;;;;;;0.39;72.28;98056.16;103547;1317;98109;-76
2021/12/29 10:06:12;;;;;;;83.20;45.60;;;;;;;0.40;72.33;98056.09;102932;1319;97280;-75
2021/12/29 10:08:49;;;;;;;81.80;42.30;;;;;;;0.46;72.46;98058.09;104637;1318;112741;-75
2021/12/29 10:11:37;;;;;;;82.80;44.60;;;;;;;0.53;72.57;98059.14;104134;1319;99262;-74
2021/12/29 10:14:12;;;;;;;84.10;45.20;;;;;;;0.62;72.53;98053.13;103059;1319;107704;-74
2021/12/29 10:16:43;;;;;;;86.70;42.60;;;;;;;0.73;72.53;98053.81;102995;1319;99897;-74
2021/12/29 10:19:14;;;;;;;84.50;45.00;;;;;;;0.83;72.66;98050.89;102949;1322;99273;-76
2021/12/29 10:21:48;;;;;;;85.20;44.50;;;;;;;0.91;72.46;98056.94;103038;1319;112595;-74
2021/12/29 10:24:19;;;;;;;87.40;47.90;;;;;;;0.98;72.58;98056.27;102866;1318;99237;-75
2021/12/29 10:26:50;;;;;;;209.90;103.60;;;;;;;1.02;72.56;98055.54;103041;1319;107895;-75
2021/12/29 10:29:21;;;;;;;91.70;46.40;;;;;;;1.07;72.71;98062.30;102949;1320;99367;-75
2021/12/29 10:31:56;;;;;;;80.10;43.90;;;;;;;1.12;72.73;98059.27;102911;1322;100053;-74
2021/12/29 10:34:29;;;;;;;77.20;43.80;;;;;;;1.17;72.68;98058.67;103007;1319;113481;-74
2021/12/29 10:37:11;;;;;;;73.70;40.30;;;;;;;1.21;72.75;98058.63;103067;1319;97616;-74
2021/12/29 10:39:47;;;;;;;75.50;40.60;;;;;;;1.27;72.67;98060.09;102829;1320;107852;-77
2021/12/29 10:42:21;;;;;;;100.50;57.30;;;;;;;1.31;72.67;98056.33;102844;1318;99288;-75
2021/12/29 10:45:02;;;;;;;86.70;50.10;;;;;;;1.37;72.57;98052.73;102903;1319;99329;-75
2021/12/29 10:47:34;;;;;;;78.60;42.60;;;;;;;1.42;72.81;98051.24;102967;1318;111692;-76
2021/12/29 10:50:15;;;;;;;82.30;42.70;;;;;;;1.43;72.35;98053.83;102867;1319;96645;-75
2021/12/29 10:52:46;;;;;;;79.10;43.30;;;;;;;1.44;72.76;98050.09;103119;1317;106077;-75
2021/12/29 10:55:32;;;;;;;78.50;43.30;;;;;;;1.46;72.71;98044.40;102825;1318;100056;-74
2021/12/29 10:58:13;;;;;;;77.20;41.90;;;;;;;1.50;72.63;98045.08;102818;1321;97335;-75
2021/12/29 11:01:15;;;;;;;76.00;41.10;;;;;;;1.53;72.38;98044.26;103186;1319;112861;-75
2021/12/29 11:03:52;;;;;;;79.80;42.80;;;;;;;1.58;72.42;98044.86;103148;1316;99130;-74
2021/12/29 11:06:27;;;;;;;75.40;41.40;;;;;;;1.65;72.56;98036.27;102966;1318;107646;-75
2021/12/29 11:08:58;;;;;;;77.40;44.60;;;;;;;1.69;72.41;98040.79;102855;1321;97869;-75
2021/12/29 11:11:38;;;;;;;85.00;46.60;;;;;;;1.68;72.49;98037.50;103059;1319;99920;-75
2021/12/29 11:14:16;;;;;;;109.30;59.80;;;;;;;1.70;72.22;98042.10;103158;1316;112850;-76
2021/12/29 11:17:00;;;;;;;85.60;45.00;;;;;;;1.80;72.29;98044.94;102919;1321;99220;-76
2021/12/29 11:19:38;;;;;;;91.20;47.70;;;;;;;1.88;73.03;98041.19;103092;1319;107861;-75
2021/12/29 11:22:19;;;;;;;87.30;47.70;;;;;;;1.97;72.78;98041.95;102935;1319;99125;-77
2021/12/29 11:24:56;;;;;;;86.80;45.70;;;;;;;2.06;72.75;98043.68;103144;1316;97821;-75
2021/12/29 11:27:27;;;;;;;90.00;46.90;;;;;;;2.10;72.43;98049.78;103037;1322;112070;-74
2021/12/29 11:29:58;;;;;;;89.90;48.60;;;;;;;2.10;72.67;98045.96;103105;1316;99246;-76